createdAt,value
2017-01-01T00:00:33.334Z,0
2017-01-01T00:01:48.267Z,0
2017-01-01T00:03:48.300Z,0
2017-01-01T00:04:33.407Z,0
2017-01-01T00:05:48.335Z,0
2017-01-01T00:06:33.437Z,0
2017-01-01T00:07:33.455Z,0
2017-01-01T00:08:33.468Z,0
2017-01-01T00:10:33.500Z,0
2017-01-01T00:11:33.522Z,0
2017-01-01T00:12:33.538Z,0
2017-01-01T00:13:48.474Z,0
2017-01-01T00:14:33.570Z,0
2017-01-01T00:15:33.590Z,0
2017-01-01T00:17:03.437Z,0
2017-01-01T00:17:48.538Z,0
2017-01-01T00:18:48.554Z,0
2017-01-01T00:19:33.666Z,0
2017-01-01T00:20:33.676Z,0
2017-01-01T00:21:33.689Z,0
2017-01-01T00:22:33.706Z,0
2017-01-01T00:23:33.719Z,0
2017-01-01T00:24:33.769Z,0
2017-01-01T00:25:33.758Z,0
2017-01-01T00:26:48.691Z,0
2017-01-01T00:27:48.711Z,0
2017-01-01T00:28:33.808Z,0
2017-01-01T00:29:48.738Z,0
2017-01-01T00:30:48.757Z,0
2017-01-01T00:31:33.858Z,0
2017-01-01T00:32:48.789Z,0
2017-01-01T00:33:33.891Z,0
2017-01-01T00:34:33.906Z,0
2017-01-01T00:35:33.921Z,0
2017-01-01T00:36:33.946Z,0
2017-01-01T00:37:48.874Z,0
2017-01-01T00:38:33.974Z,0
2017-01-01T00:39:34.021Z,0
2017-01-01T00:40:34.011Z,0
2017-01-01T00:41:34.027Z,0
2017-01-01T00:42:34.054Z,0
2017-01-01T00:43:34.060Z,0
2017-01-01T00:44:48.992Z,0
2017-01-01T00:45:34.092Z,0
2017-01-01T00:46:34.107Z,0
2017-01-01T00:47:49.045Z,0
2017-01-01T00:48:49.059Z,0
2017-01-01T00:49:34.168Z,0
2017-01-01T00:50:34.184Z,0
2017-01-01T00:51:49.108Z,0
2017-01-01T00:52:34.212Z,0
2017-01-01T00:53:49.149Z,0
2017-01-01T00:54:34.244Z,0
2017-01-01T00:55:34.264Z,0
2017-01-01T00:56:34.282Z,0
2017-01-01T00:57:49.213Z,0
2017-01-01T00:58:34.309Z,0
2017-01-01T00:59:34.325Z,0
2017-01-01T01:00:34.345Z,0
2017-01-01T01:01:34.363Z,0
2017-01-01T01:02:34.377Z,0
2017-01-01T01:03:34.427Z,0
2017-01-01T01:04:34.412Z,0
2017-01-01T01:05:49.346Z,0
2017-01-01T01:06:34.444Z,0
2017-01-01T01:07:34.459Z,0
2017-01-01T01:08:34.508Z,0
2017-01-01T01:09:49.412Z,0
2017-01-01T01:10:34.514Z,0
2017-01-01T01:11:34.530Z,0
2017-01-01T01:12:34.558Z,0
2017-01-01T01:13:34.562Z,0
2017-01-01T01:14:34.578Z,0
2017-01-01T01:15:34.598Z,0
2017-01-01T01:16:34.615Z,0
2017-01-01T01:17:34.629Z,0
2017-01-01T01:18:34.650Z,0
2017-01-01T01:19:34.671Z,0
2017-01-01T01:20:34.681Z,0
2017-01-01T01:21:34.698Z,0
2017-01-01T01:22:34.710Z,0
2017-01-01T01:23:34.733Z,0
2017-01-01T01:24:34.749Z,0
2017-01-01T01:25:49.680Z,0
2017-01-01T01:27:34.796Z,0
2017-01-01T01:28:34.813Z,0
2017-01-01T01:29:34.831Z,0
2017-01-01T01:30:34.849Z,0
2017-01-01T01:31:34.866Z,0
2017-01-01T01:32:34.881Z,0
2017-01-01T01:33:49.813Z,0
2017-01-01T01:34:34.913Z,0
2017-01-01T01:35:49.851Z,0
2017-01-01T01:36:49.866Z,0
2017-01-01T01:37:34.966Z,0
2017-01-01T01:38:34.982Z,0
2017-01-01T01:39:34.997Z,0
2017-01-01T01:40:49.945Z,0
2017-01-01T01:41:35.033Z,0
2017-01-01T01:42:35.075Z,0
2017-01-01T01:43:35.063Z,0
2017-01-01T01:44:35.084Z,0
2017-01-01T01:45:50.019Z,0
2017-01-01T01:46:50.033Z,0
2017-01-01T01:47:50.049Z,0
2017-01-01T01:48:35.160Z,0
2017-01-01T01:49:35.165Z,0
2017-01-01T01:50:35.190Z,0
2017-01-01T01:51:35.201Z,0
2017-01-01T01:52:35.216Z,0
2017-01-01T01:53:50.148Z,0
2017-01-01T01:54:50.175Z,0
2017-01-01T01:55:35.268Z,0
2017-01-01T01:56:35.284Z,0
2017-01-01T01:57:35.300Z,0
2017-01-01T01:58:35.314Z,0
2017-01-01T01:59:35.335Z,0
2017-01-01T02:00:35.349Z,0
2017-01-01T02:01:35.368Z,0
2017-01-01T02:02:50.300Z,0
2017-01-01T02:03:35.401Z,0
2017-01-01T02:04:50.719Z,0
2017-01-01T02:05:35.432Z,0
2017-01-01T02:06:35.449Z,0
2017-01-01T02:07:35.467Z,0
2017-01-01T02:08:50.400Z,0
2017-01-01T02:10:35.599Z,0
2017-01-01T02:12:50.469Z,0
2017-01-01T02:13:35.577Z,0
2017-01-01T02:14:35.584Z,0
2017-01-01T02:15:35.666Z,0
2017-01-01T02:16:35.617Z,0
2017-01-01T02:17:50.552Z,0
2017-01-01T02:18:50.568Z,0
2017-01-01T02:19:35.664Z,0
2017-01-01T02:20:50.600Z,0
2017-01-01T02:21:35.700Z,0
2017-01-01T02:22:35.717Z,0
2017-01-01T02:23:50.652Z,0
2017-01-01T02:24:35.751Z,0
2017-01-01T02:25:35.773Z,0
2017-01-01T02:26:35.787Z,0
2017-01-01T02:27:35.804Z,0
2017-01-01T02:28:50.741Z,0
2017-01-01T02:29:35.835Z,0
2017-01-01T02:30:35.860Z,0
2017-01-01T02:31:35.871Z,0
2017-01-01T02:32:35.894Z,0
2017-01-01T02:33:35.903Z,0
2017-01-01T02:34:35.926Z,0
2017-01-01T02:35:35.933Z,0
2017-01-01T02:37:36.002Z,0
2017-01-01T02:38:35.983Z,0
2017-01-01T02:41:36.036Z,0
2017-01-01T02:42:36.054Z,0
2017-01-01T02:43:36.066Z,0
2017-01-01T02:44:51.001Z,0
2017-01-01T02:45:36.402Z,0
2017-01-01T02:46:36.133Z,0
2017-01-01T02:47:36.141Z,0
2017-01-01T02:48:36.151Z,0
2017-01-01T02:50:36.189Z,0
2017-01-01T02:51:36.205Z,0
2017-01-01T02:52:36.222Z,0
2017-01-01T02:53:36.239Z,0
2017-01-01T02:54:36.254Z,0
2017-01-01T02:55:36.279Z,0
2017-01-01T02:56:36.285Z,0
2017-01-01T02:57:51.250Z,0
2017-01-01T02:58:36.319Z,0
2017-01-01T02:59:36.339Z,0
2017-01-01T03:00:51.270Z,0
2017-01-01T03:01:36.370Z,0
2017-01-01T03:02:36.387Z,0
2017-01-01T03:03:36.408Z,0
2017-01-01T03:04:36.419Z,0
2017-01-01T03:05:36.435Z,0
2017-01-01T03:06:36.456Z,0
2017-01-01T03:07:51.387Z,0
2017-01-01T03:08:36.487Z,0
2017-01-01T03:09:36.505Z,0
2017-01-01T03:10:36.523Z,0
2017-01-01T03:12:06.372Z,0
2017-01-01T03:12:36.559Z,0
2017-01-01T03:13:36.575Z,0
2017-01-01T03:14:36.621Z,0
2017-01-01T03:15:51.521Z,0
2017-01-01T03:16:36.621Z,0
2017-01-01T03:17:36.645Z,0
2017-01-01T03:18:36.654Z,0
2017-01-01T03:19:51.591Z,0
2017-01-01T03:20:36.693Z,0
2017-01-01T03:21:36.713Z,0
2017-01-01T03:22:51.638Z,0
2017-01-01T03:24:36.757Z,0
2017-01-01T03:25:51.690Z,0
2017-01-01T03:26:51.710Z,0
2017-01-01T03:27:51.724Z,0
2017-01-01T03:28:36.845Z,0
2017-01-01T03:29:36.837Z,0
2017-01-01T03:30:36.856Z,0
2017-01-01T03:31:36.875Z,0
2017-01-01T03:33:36.907Z,0
2017-01-01T03:34:36.928Z,0
2017-01-01T03:35:36.940Z,0
2017-01-01T03:36:36.956Z,0
2017-01-01T03:37:36.972Z,0
2017-01-01T03:38:36.992Z,0
2017-01-01T03:39:37.012Z,0
2017-01-01T03:40:51.941Z,0
2017-01-01T03:42:06.877Z,0
2017-01-01T03:42:51.974Z,0
2017-01-01T03:43:37.074Z,0
2017-01-01T03:44:37.091Z,0
2017-01-01T03:46:37.126Z,0
2017-01-01T03:47:52.061Z,0
2017-01-01T03:48:37.158Z,0
2017-01-01T03:49:37.176Z,0
2017-01-01T03:50:37.197Z,0
2017-01-01T03:51:37.238Z,0
2017-01-01T03:52:52.145Z,0
2017-01-01T03:53:37.242Z,0
2017-01-01T03:54:37.259Z,0
2017-01-01T03:55:37.280Z,0
2017-01-01T03:56:37.292Z,0
2017-01-01T03:57:37.305Z,0
2017-01-01T03:58:37.713Z,0
2017-01-01T03:59:37.347Z,0
2017-01-01T04:00:52.275Z,0
2017-01-01T04:01:37.382Z,0
2017-01-01T04:02:37.396Z,0
2017-01-01T04:03:52.324Z,0
2017-01-01T04:04:37.428Z,0
2017-01-01T04:05:37.443Z,0
2017-01-01T04:06:37.459Z,0
2017-01-01T04:07:37.496Z,0
2017-01-01T04:08:37.492Z,0
2017-01-01T04:09:52.426Z,0
2017-01-01T04:10:52.444Z,0
2017-01-01T04:11:37.543Z,0
2017-01-01T04:12:37.561Z,0
2017-01-01T04:13:37.577Z,0
2017-01-01T04:14:37.980Z,0
2017-01-01T04:15:37.620Z,0
2017-01-01T04:17:37.648Z,0
2017-01-01T04:19:52.599Z,0
2017-01-01T04:20:37.722Z,0
2017-01-01T04:21:37.710Z,0
2017-01-01T04:22:37.728Z,0
2017-01-01T04:23:37.748Z,0
2017-01-01T04:24:37.762Z,0
2017-01-01T04:25:37.783Z,0
2017-01-01T04:26:37.796Z,0
2017-01-01T04:27:37.810Z,0
2017-01-01T04:28:37.828Z,0
2017-01-01T04:29:37.843Z,0
2017-01-01T04:30:37.863Z,0
2017-01-01T04:31:37.879Z,0
2017-01-01T04:32:37.900Z,0
2017-01-01T04:33:37.911Z,0
2017-01-01T04:34:52.854Z,0
2017-01-01T04:35:52.864Z,0
2017-01-01T04:37:37.983Z,0
2017-01-01T04:38:38.000Z,0
2017-01-01T04:39:38.014Z,0
2017-01-01T04:40:38.032Z,0
2017-01-01T04:41:52.966Z,0
2017-01-01T04:42:38.066Z,0
2017-01-01T04:43:38.084Z,0
2017-01-01T04:44:38.486Z,0
2017-01-01T04:45:38.117Z,0
2017-01-01T04:48:38.168Z,0
2017-01-01T04:49:38.187Z,0
2017-01-01T04:51:08.046Z,0
2017-01-01T04:52:38.245Z,0
2017-01-01T04:53:38.249Z,0
2017-01-01T04:54:38.272Z,0
2017-01-01T04:55:38.289Z,0
2017-01-01T04:56:38.301Z,0
2017-01-01T04:57:38.323Z,0
2017-01-01T04:58:38.371Z,0
2017-01-01T04:59:38.381Z,0
2017-01-01T05:00:38.368Z,0
2017-01-01T05:01:38.384Z,0
2017-01-01T05:02:53.321Z,0
2017-01-01T05:04:38.444Z,0
2017-01-01T05:05:53.381Z,0
2017-01-01T05:07:38.502Z,0
2017-01-01T05:08:38.510Z,0
2017-01-01T05:09:38.546Z,0
2017-01-01T05:10:38.545Z,0
2017-01-01T05:11:38.558Z,0
2017-01-01T05:12:38.575Z,0
2017-01-01T05:13:38.592Z,0
2017-01-01T05:14:53.525Z,0
2017-01-01T05:15:38.626Z,0
2017-01-01T05:17:38.661Z,0
2017-01-01T05:18:38.675Z,0
2017-01-01T05:20:38.709Z,0
2017-01-01T05:21:38.729Z,0
2017-01-01T05:22:53.660Z,0
2017-01-01T05:23:38.762Z,0
2017-01-01T05:24:38.776Z,0
2017-01-01T05:25:38.796Z,0
2017-01-01T05:26:38.812Z,0
2017-01-01T05:27:53.752Z,0
2017-01-01T05:28:53.769Z,0
2017-01-01T05:29:38.860Z,0
2017-01-01T05:30:38.882Z,0
2017-01-01T05:31:38.896Z,0
2017-01-01T05:32:38.912Z,0
2017-01-01T05:33:38.932Z,0
2017-01-01T05:34:53.864Z,0
2017-01-01T05:35:38.960Z,0
2017-01-01T05:36:38.986Z,0
2017-01-01T05:37:39.388Z,0
2017-01-01T05:38:53.937Z,0
2017-01-01T05:39:39.034Z,0
2017-01-01T05:40:39.053Z,0
2017-01-01T05:41:39.064Z,0
2017-01-01T05:42:54.004Z,0
2017-01-01T05:43:54.017Z,0
2017-01-01T05:44:39.115Z,0
2017-01-01T05:45:39.135Z,0
2017-01-01T05:46:54.069Z,0
2017-01-01T05:47:39.166Z,0
2017-01-01T05:48:39.182Z,0
2017-01-01T05:49:39.200Z,0
2017-01-01T05:50:39.641Z,0
2017-01-01T05:51:54.150Z,0
2017-01-01T05:52:39.250Z,0
2017-01-01T05:53:39.268Z,0
2017-01-01T05:54:54.205Z,0
2017-01-01T05:55:39.300Z,0
2017-01-01T05:56:39.317Z,0
2017-01-01T05:57:39.332Z,0
2017-01-01T05:58:39.352Z,0
2017-01-01T05:59:39.369Z,0
2017-01-01T06:00:39.387Z,0
2017-01-01T06:01:39.401Z,0
2017-01-01T06:02:39.447Z,0
2017-01-01T06:03:39.437Z,0
2017-01-01T06:04:39.454Z,0
2017-01-01T06:05:54.387Z,0
2017-01-01T06:08:39.520Z,0
2017-01-01T06:09:39.930Z,0
2017-01-01T06:10:54.469Z,0
2017-01-01T06:11:39.569Z,0
2017-01-01T06:12:54.507Z,0
2017-01-01T06:13:39.606Z,0
2017-01-01T06:14:39.620Z,0
2017-01-01T06:15:39.635Z,0
2017-01-01T06:16:39.655Z,0
2017-01-01T06:17:54.585Z,0
2017-01-01T06:18:39.687Z,0
2017-01-01T06:19:54.620Z,0
2017-01-01T06:20:39.724Z,0
2017-01-01T06:22:09.569Z,0
2017-01-01T06:22:39.751Z,0
2017-01-01T06:23:39.773Z,0
2017-01-01T06:24:39.784Z,0
2017-01-01T06:25:54.723Z,0
2017-01-01T06:26:39.821Z,0
2017-01-01T06:27:39.842Z,0
2017-01-01T06:28:39.855Z,0
2017-01-01T06:29:39.871Z,0
2017-01-01T06:30:39.884Z,0
2017-01-01T06:31:39.901Z,0
2017-01-01T06:32:54.837Z,0
2017-01-01T06:33:39.941Z,0
2017-01-01T06:34:39.953Z,0
2017-01-01T06:35:39.970Z,0
2017-01-01T06:36:39.994Z,0
2017-01-01T06:37:40.005Z,0
2017-01-01T06:38:40.315Z,0
2017-01-01T06:40:40.052Z,0
2017-01-01T06:41:40.067Z,0
2017-01-01T06:42:40.085Z,0
2017-01-01T06:43:40.100Z,0
2017-01-01T06:44:40.117Z,0
2017-01-01T06:45:40.134Z,0
2017-01-01T06:46:40.152Z,0
2017-01-01T06:47:40.164Z,0
2017-01-01T06:48:40.184Z,0
2017-01-01T06:49:40.204Z,0
2017-01-01T06:51:55.151Z,0
2017-01-01T06:52:40.664Z,0
2017-01-01T06:54:40.277Z,0
2017-01-01T06:55:40.295Z,0
2017-01-01T06:57:55.249Z,0
2017-01-01T06:58:40.350Z,0
2017-01-01T06:59:40.362Z,0
2017-01-01T07:00:40.378Z,0
2017-01-01T07:01:40.397Z,0
2017-01-01T07:02:40.416Z,0
2017-01-01T07:03:40.434Z,0
2017-01-01T07:04:40.443Z,0
2017-01-01T07:05:40.476Z,0
2017-01-01T07:06:40.475Z,0
2017-01-01T07:07:40.494Z,0
2017-01-01T07:08:40.509Z,0
2017-01-01T07:09:55.445Z,0
2017-01-01T07:12:40.604Z,5
2017-01-01T07:13:55.513Z,5
2017-01-01T07:14:40.604Z,5
2017-01-01T07:15:40.622Z,5
2017-01-01T07:16:40.643Z,5
2017-01-01T07:17:40.651Z,5
2017-01-01T07:18:40.675Z,5
2017-01-01T07:19:40.686Z,5
2017-01-01T07:20:55.621Z,10
2017-01-01T07:21:40.722Z,10
2017-01-01T07:22:40.731Z,10
2017-01-01T07:23:40.750Z,10
2017-01-01T07:25:40.782Z,10
2017-01-01T07:26:40.824Z,10
2017-01-01T07:27:40.815Z,15
2017-01-01T07:28:40.830Z,15
2017-01-01T07:29:55.765Z,15
2017-01-01T07:30:40.863Z,15
2017-01-01T07:32:40.893Z,15
2017-01-01T07:33:40.910Z,15
2017-01-01T07:34:40.926Z,20
2017-01-01T07:35:40.941Z,20
2017-01-01T07:36:40.967Z,20
2017-01-01T07:37:40.976Z,20
2017-01-01T07:38:40.997Z,25
2017-01-01T07:39:41.018Z,25
2017-01-01T07:40:41.020Z,25
2017-01-01T07:41:41.040Z,30
2017-01-01T07:43:41.072Z,30
2017-01-01T07:44:41.117Z,30
2017-01-01T07:45:56.020Z,35
2017-01-01T07:46:41.128Z,35
2017-01-01T07:47:41.136Z,35
2017-01-01T07:48:41.545Z,35
2017-01-01T07:49:56.087Z,35
2017-01-01T07:50:41.184Z,35
2017-01-01T07:51:41.201Z,35
2017-01-01T07:52:56.132Z,35
2017-01-01T07:53:56.147Z,35
2017-01-01T07:54:56.179Z,40
2017-01-01T07:55:41.266Z,35
2017-01-01T07:56:56.196Z,40
2017-01-01T07:57:41.297Z,40
2017-01-01T07:58:41.318Z,40
2017-01-01T07:59:41.352Z,40
2017-01-01T08:00:56.290Z,40
2017-01-01T08:01:41.381Z,40
2017-01-01T08:02:41.376Z,40
2017-01-01T08:03:41.392Z,40
2017-01-01T08:04:41.410Z,45
2017-01-01T08:05:56.345Z,45
2017-01-01T08:06:41.445Z,45
2017-01-01T08:07:41.460Z,45
2017-01-01T08:08:41.476Z,45
2017-01-01T08:09:41.495Z,45
2017-01-01T08:10:41.507Z,45
2017-01-01T08:11:41.523Z,50
2017-01-01T08:12:41.539Z,55
2017-01-01T08:13:56.471Z,50
2017-01-01T08:14:41.572Z,50
2017-01-01T08:15:41.590Z,55
2017-01-01T08:16:41.604Z,50
2017-01-01T08:18:41.635Z,50
2017-01-01T08:19:41.650Z,50
2017-01-01T08:20:41.663Z,50
2017-01-01T08:21:41.686Z,50
2017-01-01T08:22:41.698Z,50
2017-01-01T08:23:56.636Z,55
2017-01-01T08:24:56.668Z,55
2017-01-01T08:25:41.748Z,50
2017-01-01T08:26:41.760Z,45
2017-01-01T08:27:56.698Z,45
2017-01-01T08:28:41.795Z,45
2017-01-01T08:29:41.809Z,45
2017-01-01T08:31:41.844Z,40
2017-01-01T08:32:56.776Z,45
2017-01-01T08:33:41.872Z,45
2017-01-01T08:34:56.813Z,45
2017-01-01T08:35:41.904Z,45
2017-01-01T08:36:41.923Z,45
2017-01-01T08:37:41.936Z,45
2017-01-01T08:38:41.955Z,45
2017-01-01T08:39:56.891Z,45
2017-01-01T08:40:41.985Z,45
2017-01-01T08:41:42.003Z,45
2017-01-01T08:42:42.018Z,45
2017-01-01T08:44:42.054Z,45
2017-01-01T08:45:42.068Z,45
2017-01-01T08:46:42.084Z,50
2017-01-01T08:47:42.099Z,45
2017-01-01T08:48:57.042Z,50
2017-01-01T08:49:42.140Z,55
2017-01-01T08:50:42.150Z,50
2017-01-01T08:51:42.172Z,50
2017-01-01T08:52:42.183Z,45
2017-01-01T08:53:57.118Z,50
2017-01-01T08:54:42.217Z,50
2017-01-01T08:55:42.230Z,50
2017-01-01T08:56:42.251Z,50
2017-01-01T08:57:42.263Z,55
2017-01-01T08:58:42.281Z,55
2017-01-01T08:59:57.216Z,65
2017-01-01T09:01:42.336Z,55
2017-01-01T09:04:57.314Z,60
2017-01-01T09:05:42.396Z,60
2017-01-01T09:06:42.414Z,55
2017-01-01T09:07:42.462Z,55
2017-01-01T09:08:42.445Z,55
2017-01-01T09:09:42.490Z,60
2017-01-01T09:10:42.485Z,70
2017-01-01T09:11:42.495Z,65
2017-01-01T09:12:42.512Z,65
2017-01-01T09:13:42.528Z,65
2017-01-01T09:14:57.466Z,90
2017-01-01T09:15:42.565Z,85
2017-01-01T09:16:42.582Z,75
2017-01-01T09:17:42.596Z,70
2017-01-01T09:18:42.614Z,65
2017-01-01T09:19:42.629Z,65
2017-01-01T09:20:57.565Z,65
2017-01-01T09:21:42.670Z,70
2017-01-01T09:22:42.683Z,90
2017-01-01T09:23:42.698Z,70
2017-01-01T09:24:42.712Z,80
2017-01-01T09:25:42.733Z,70
2017-01-01T09:26:57.671Z,70
2017-01-01T09:27:42.762Z,70
2017-01-01T09:28:42.782Z,75
2017-01-01T09:29:42.805Z,70
2017-01-01T09:30:58.120Z,80
2017-01-01T09:31:57.750Z,80
2017-01-01T09:32:42.850Z,90
2017-01-01T09:33:42.877Z,80
2017-01-01T09:35:57.827Z,85
2017-01-01T09:36:42.921Z,70
2017-01-01T09:37:57.861Z,65
2017-01-01T09:38:42.953Z,65
2017-01-01T09:39:42.976Z,70
2017-01-01T09:40:57.903Z,65
2017-01-01T09:41:57.920Z,65
2017-01-01T09:42:43.022Z,65
2017-01-01T09:43:57.958Z,80
2017-01-01T09:44:43.059Z,80
2017-01-01T09:45:43.069Z,80
2017-01-01T09:46:43.093Z,85
2017-01-01T09:47:43.109Z,85
2017-01-01T09:48:43.128Z,85
2017-01-01T09:49:43.138Z,85
2017-01-01T09:51:43.180Z,85
2017-01-01T09:52:43.189Z,85
2017-01-01T09:53:43.208Z,85
2017-01-01T09:54:43.224Z,85
2017-01-01T09:55:43.239Z,85
2017-01-01T09:56:43.255Z,85
2017-01-01T09:57:43.279Z,85
2017-01-01T09:58:58.210Z,90
2017-01-01T09:59:43.457Z,95
2017-01-01T10:00:43.358Z,100
2017-01-01T10:01:43.345Z,105
2017-01-01T10:02:43.356Z,110
2017-01-01T10:04:43.397Z,115
2017-01-01T10:05:43.411Z,110
2017-01-01T10:06:43.429Z,105
2017-01-01T10:07:58.360Z,95
2017-01-01T10:09:43.480Z,80
2017-01-01T10:10:43.501Z,80
2017-01-01T10:11:43.513Z,75
2017-01-01T10:12:58.451Z,75
2017-01-01T10:13:58.467Z,75
2017-01-01T10:14:43.563Z,75
2017-01-01T10:15:43.586Z,75
2017-01-01T10:16:43.605Z,75
2017-01-01T10:17:43.619Z,75
2017-01-01T10:18:43.636Z,75
2017-01-01T10:19:43.658Z,80
2017-01-01T10:20:43.671Z,80
2017-01-01T10:21:58.603Z,75
2017-01-01T10:22:43.710Z,75
2017-01-01T10:23:58.640Z,70
2017-01-01T10:24:43.746Z,70
2017-01-01T10:25:43.765Z,65
2017-01-01T10:26:43.771Z,65
2017-01-01T10:27:43.792Z,70
2017-01-01T10:28:43.805Z,80
2017-01-01T10:29:58.744Z,85
2017-01-01T10:30:58.761Z,90
2017-01-01T10:31:43.860Z,80
2017-01-01T10:32:43.876Z,80
2017-01-01T10:33:43.897Z,75
2017-01-01T10:34:58.836Z,75
2017-01-01T10:35:43.937Z,80
2017-01-01T10:37:43.980Z,80
2017-01-01T10:38:43.982Z,80
2017-01-01T10:39:58.921Z,75
2017-01-01T10:40:44.019Z,70
2017-01-01T10:41:44.038Z,70
2017-01-01T10:42:44.054Z,75
2017-01-01T10:43:44.070Z,80
2017-01-01T10:44:59.008Z,80
2017-01-01T10:45:44.107Z,80
2017-01-01T10:46:44.157Z,80
2017-01-01T10:47:59.060Z,80
2017-01-01T10:48:44.179Z,80
2017-01-01T10:49:44.177Z,75
2017-01-01T10:50:44.198Z,70
2017-01-01T10:51:59.132Z,70
2017-01-01T10:52:44.276Z,70
2017-01-01T10:53:44.254Z,70
2017-01-01T10:54:44.269Z,75
2017-01-01T10:55:59.205Z,75
2017-01-01T10:56:44.303Z,75
2017-01-01T10:57:59.243Z,70
2017-01-01T10:58:44.338Z,70
2017-01-01T10:59:44.355Z,65
2017-01-01T11:00:44.381Z,65
2017-01-01T11:01:44.397Z,65
2017-01-01T11:02:44.414Z,65
2017-01-01T11:03:44.428Z,65
2017-01-01T11:04:44.447Z,70
2017-01-01T11:05:44.462Z,70
2017-01-01T11:06:59.401Z,70
2017-01-01T11:07:44.500Z,70
2017-01-01T11:09:44.540Z,70
2017-01-01T11:10:59.474Z,75
2017-01-01T11:11:44.573Z,75
2017-01-01T11:12:44.590Z,75
2017-01-01T11:13:44.614Z,70
2017-01-01T11:14:44.627Z,75
2017-01-01T11:15:44.648Z,75
2017-01-01T11:17:45.067Z,75
2017-01-01T11:18:44.697Z,75
2017-01-01T11:19:44.720Z,75
2017-01-01T11:20:44.731Z,75
2017-01-01T11:21:45.146Z,70
2017-01-01T11:23:44.787Z,70
2017-01-01T11:24:44.805Z,65
2017-01-01T11:25:44.827Z,65
2017-01-01T11:26:44.843Z,65
2017-01-01T11:27:45.251Z,60
2017-01-01T11:28:44.877Z,60
2017-01-01T11:29:44.902Z,60
2017-01-01T11:30:44.913Z,55
2017-01-01T11:31:44.930Z,55
2017-01-01T11:32:44.949Z,55
2017-01-01T11:33:44.968Z,50
2017-01-01T11:34:59.905Z,55
2017-01-01T11:35:45.008Z,55
2017-01-01T11:36:59.942Z,55
2017-01-01T11:37:45.428Z,55
2017-01-01T11:38:45.074Z,55
2017-01-01T11:39:45.076Z,55
2017-01-01T11:40:45.093Z,55
2017-01-01T11:43:00.049Z,55
2017-01-01T11:43:45.152Z,55
2017-01-01T11:44:45.552Z,55
2017-01-01T11:45:45.183Z,60
2017-01-01T11:46:45.207Z,60
2017-01-01T11:47:45.220Z,60
2017-01-01T11:49:00.158Z,60
2017-01-01T11:49:45.256Z,60
2017-01-01T11:51:00.191Z,60
2017-01-01T11:52:00.214Z,55
2017-01-01T11:52:45.313Z,50
2017-01-01T11:53:45.715Z,45
2017-01-01T11:55:00.265Z,40
2017-01-01T11:55:45.368Z,40
2017-01-01T11:56:45.386Z,40
2017-01-01T11:57:45.402Z,40
2017-01-01T11:59:00.340Z,40
2017-01-01T11:59:45.439Z,45
2017-01-01T12:00:45.457Z,45
2017-01-01T12:01:45.476Z,50
2017-01-01T12:03:00.411Z,50
2017-01-01T12:03:45.512Z,50
2017-01-01T12:04:45.532Z,45
2017-01-01T12:05:45.547Z,50
2017-01-01T12:06:45.564Z,50
2017-01-01T12:08:45.600Z,50
2017-01-01T12:10:00.535Z,50
2017-01-01T12:11:00.557Z,50
2017-01-01T12:11:46.043Z,50
2017-01-01T12:12:45.678Z,50
2017-01-01T12:13:45.690Z,45
2017-01-01T12:15:00.627Z,45
2017-01-01T12:15:45.727Z,45
2017-01-01T12:16:45.744Z,45
2017-01-01T12:17:45.770Z,45
2017-01-01T12:18:45.784Z,40
2017-01-01T12:19:45.801Z,40
2017-01-01T12:20:45.817Z,40
2017-01-01T12:21:45.836Z,40
2017-01-01T12:23:00.771Z,35
2017-01-01T12:23:45.897Z,35
2017-01-01T12:25:00.808Z,30
2017-01-01T12:25:45.908Z,30
2017-01-01T12:27:45.943Z,25
2017-01-01T12:28:45.965Z,25
2017-01-01T12:29:46.416Z,25
2017-01-01T12:31:00.916Z,25
2017-01-01T12:31:46.016Z,25
2017-01-01T12:32:46.038Z,25
2017-01-01T12:33:46.051Z,20
2017-01-01T12:34:46.071Z,20
2017-01-01T12:35:46.088Z,20
2017-01-01T12:36:46.105Z,20
2017-01-01T12:37:46.124Z,20
2017-01-01T12:38:46.144Z,20
2017-01-01T12:39:46.158Z,20
2017-01-01T12:41:01.098Z,20
2017-01-01T12:41:46.197Z,20
2017-01-01T12:42:46.215Z,20
2017-01-01T12:43:46.236Z,20
2017-01-01T12:44:46.248Z,20
2017-01-01T12:46:01.190Z,20
2017-01-01T12:47:01.213Z,20
2017-01-01T12:47:46.302Z,20
2017-01-01T12:48:46.321Z,20
2017-01-01T12:49:46.341Z,20
2017-01-01T12:50:46.359Z,20
2017-01-01T12:51:46.767Z,20
2017-01-01T12:53:01.310Z,20
2017-01-01T12:53:46.412Z,20
2017-01-01T12:54:46.430Z,20
2017-01-01T12:55:46.444Z,20
2017-01-01T12:56:46.466Z,20
2017-01-01T12:57:46.486Z,20
2017-01-01T12:58:46.504Z,20
2017-01-01T12:59:46.521Z,15
2017-01-01T13:01:01.461Z,15
2017-01-01T13:01:46.554Z,15
2017-01-01T13:02:46.570Z,15
2017-01-01T13:03:46.588Z,15
2017-01-01T13:04:46.609Z,15
2017-01-01T13:05:46.625Z,15
2017-01-01T13:06:46.642Z,15
2017-01-01T13:07:46.662Z,15
2017-01-01T13:08:46.684Z,15
2017-01-01T13:09:46.696Z,15
2017-01-01T13:10:46.713Z,15
2017-01-01T13:11:46.734Z,15
2017-01-01T13:13:01.670Z,15
2017-01-01T13:14:01.684Z,15
2017-01-01T13:14:46.787Z,15
2017-01-01T13:15:46.805Z,15
2017-01-01T13:16:46.819Z,15
2017-01-01T13:18:01.759Z,15
2017-01-01T13:18:46.890Z,15
2017-01-01T13:19:46.875Z,10
2017-01-01T13:20:46.896Z,10
2017-01-01T13:21:46.909Z,10
2017-01-01T13:23:01.853Z,10
2017-01-01T13:23:46.942Z,10
2017-01-01T13:25:01.885Z,10
2017-01-01T13:25:46.986Z,10
2017-01-01T13:26:47.384Z,10
2017-01-01T13:27:47.014Z,10
2017-01-01T13:29:01.952Z,10
2017-01-01T13:29:47.048Z,10
2017-01-01T13:30:47.069Z,10
2017-01-01T13:31:47.094Z,10
2017-01-01T13:32:47.107Z,10
2017-01-01T13:34:02.041Z,10
2017-01-01T13:34:47.140Z,10
2017-01-01T13:36:02.085Z,10
2017-01-01T13:36:47.174Z,10
2017-01-01T13:38:02.113Z,10
2017-01-01T13:38:47.211Z,10
2017-01-01T13:39:47.229Z,10
2017-01-01T13:41:02.165Z,5
2017-01-01T13:41:47.271Z,5
2017-01-01T13:42:47.280Z,5
2017-01-01T13:43:47.298Z,5
2017-01-01T13:45:02.233Z,5
2017-01-01T13:46:02.251Z,5
2017-01-01T13:47:02.273Z,5
2017-01-01T13:47:47.371Z,5
2017-01-01T13:48:47.390Z,5
2017-01-01T13:50:47.422Z,5
2017-01-01T13:51:47.446Z,5
2017-01-01T13:52:47.471Z,5
2017-01-01T13:53:47.477Z,5
2017-01-01T13:54:47.494Z,5
2017-01-01T13:55:47.520Z,5
2017-01-01T13:56:47.532Z,5
2017-01-01T13:57:47.540Z,5
2017-01-01T13:58:47.561Z,5
2017-01-01T13:59:47.586Z,5
2017-01-01T14:00:47.613Z,5
2017-01-01T14:01:47.613Z,5
2017-01-01T14:02:47.636Z,5
2017-01-01T14:03:47.653Z,5
2017-01-01T14:04:47.682Z,5
2017-01-01T14:06:02.604Z,5
2017-01-01T14:06:47.706Z,5
2017-01-01T14:07:47.719Z,5
2017-01-01T14:08:47.738Z,5
2017-01-01T14:09:47.757Z,0
2017-01-01T14:10:48.166Z,0
2017-01-01T14:11:47.807Z,0
2017-01-01T14:12:47.821Z,0
2017-01-01T14:14:02.742Z,0
2017-01-01T14:14:47.845Z,0
2017-01-01T14:15:47.859Z,0
2017-01-01T14:16:47.878Z,0
2017-01-01T14:17:47.921Z,0
2017-01-01T14:18:47.914Z,0
2017-01-01T14:19:47.930Z,0
2017-01-01T14:21:02.895Z,0
2017-01-01T14:21:48.044Z,0
2017-01-01T14:22:47.987Z,0
2017-01-01T14:23:48.000Z,0
2017-01-01T14:24:48.021Z,0
2017-01-01T14:25:48.041Z,0
2017-01-01T14:26:48.057Z,0
2017-01-01T14:28:02.991Z,0
2017-01-01T14:29:48.106Z,0
2017-01-01T14:30:48.121Z,0
2017-01-01T14:32:03.059Z,0
2017-01-01T14:33:48.177Z,0
2017-01-01T14:34:48.195Z,0
2017-01-01T14:36:03.127Z,0
2017-01-01T14:37:03.175Z,0
2017-01-01T14:37:48.244Z,0
2017-01-01T14:38:48.269Z,0
2017-01-01T14:39:48.282Z,0
2017-01-01T14:40:48.302Z,0
2017-01-01T14:42:03.236Z,0
2017-01-01T14:42:48.336Z,0
2017-01-01T14:44:03.270Z,0
2017-01-01T14:44:48.368Z,0
2017-01-01T14:45:48.388Z,0
2017-01-01T14:47:03.330Z,0
2017-01-01T14:49:03.362Z,0
2017-01-01T14:50:48.473Z,0
2017-01-01T14:51:48.492Z,0
2017-01-01T14:53:03.428Z,0
2017-01-01T14:53:48.526Z,0
2017-01-01T14:54:48.544Z,0
2017-01-01T14:56:03.481Z,0
2017-01-01T14:56:48.605Z,0
2017-01-01T14:58:03.513Z,0
2017-01-01T14:58:48.617Z,0
2017-01-01T14:59:48.628Z,0
2017-01-01T15:00:48.652Z,0
2017-01-01T15:02:03.579Z,0
2017-01-01T15:02:48.680Z,0
2017-01-01T15:04:48.725Z,0
2017-01-01T15:06:48.753Z,0
2017-01-01T15:07:48.770Z,0
2017-01-01T15:09:03.702Z,0
2017-01-01T15:09:48.802Z,0
2017-01-01T15:10:48.818Z,0
2017-01-01T15:11:48.838Z,0
2017-01-01T15:12:48.852Z,0
2017-01-01T15:13:48.877Z,0
2017-01-01T15:14:48.890Z,0
2017-01-01T15:16:03.828Z,0
2017-01-01T15:17:03.840Z,0
2017-01-01T15:17:48.940Z,0
2017-01-01T15:18:48.980Z,0
2017-01-01T15:19:48.975Z,0
2017-01-01T15:20:48.998Z,0
2017-01-01T15:21:49.013Z,0
2017-01-01T15:22:49.031Z,0
2017-01-01T15:23:49.045Z,0
2017-01-01T15:25:03.985Z,0
2017-01-01T15:25:49.081Z,0
2017-01-01T15:26:49.099Z,0
2017-01-01T15:27:49.113Z,0
2017-01-01T15:28:49.130Z,0
2017-01-01T15:29:49.144Z,0
2017-01-01T15:30:49.172Z,0